< < Back
Terminal Aerodrome Forecast


Current Version              Previous Versions:   1  2  3  4  5  6  7  8  9  

Terminal Aerodrome Forecast

308
FTUS42 KFFC 282333
TAFAHN
TAF
KAHN 282333Z 2900/2924 08004KT P6SM SCT250
     FM291000 06005KT 5SM BR SCT250
     FM291400 07009KT P6SM SCT045
     FM292300 08005KT P6SM FEW035=



Latest METAR

007
SAUS70 KWBC 290854
MTRAHN
METAR KAHN 290851Z AUTO 06004KT 10SM FEW033 22/19 A3012 RMK AO2 SLP190
T02170194 56004


USA.gov is the U.S. government's official web portal to all federal, state and local government web resources and services.